Главная страница
METAR-TAF:

METAR-TAF

Аэропорты :

Синоп, Турция

широта: 42-00-57N, долгота: 035-03-59E, высота над уровнем моря: 7 м

Текущие метеонаблюдения

Эта сводка был подготовлена 23 минут назад, в 09:50 UTC
Ветер 7 Узел от северо-северо-восточный
Температура 19°C
Влажность 68%
Давление 1016 hPa
Видимость 10 км и более
небольшая облачность на высоте 1500 фута

METAR: LTCM 210950Z 02007KT 9999 FEW015 19/13 Q1016

Время: 13:13 (10:13 UTC)

Прогноз

Эта сводка был подготовлена 2 часа и 33 минут назад, в 07:40 UTC
Прогноз действительный с 21-го 09 UTC до 21-го 18 UTC
Ветер 8 Узел от западный
Видимость 10 км и более
небольшая облачность на высоте 1200 фута
изменения
С 21-го 10 UTC до 21-го 11 UTC
Видимость 10 км и более
Нет облачности ниже 1500 м, и нет кучево-дождевой облачности

TAF: LTCM 210740Z 2109/2118 26008KT 9999 FEW012 BECMG 2110/2111 CAVOK

Метеонаблюдения и прогнозы для более 4000 аэропортов (сводки METAR и TAF).

Имеющиеся станции представлены на карте желтыми и красными точками.

Чтобы увидеть название станции, наведите на нее мышь.

Затем щелкните, чтобы увидеть метеонаблюдения и метеопрогнозы.

Управление картой: чтобы увеличить масштаб, щелкните зеленые кнопки с черным крестиком; чтобы уменьшить масштаб, щелкните зеленую кнопку с тире; для просмотра соседних карт щелкайте зеленые стрелки.


METAR-TAF: